createdAt,value
2022-12-03T00:00:17.819Z,79.83
2022-12-03T00:02:44.271Z,80.03
2022-12-03T00:05:10.783Z,80.20
2022-12-03T00:07:37.558Z,80.47
2022-12-03T00:10:05.306Z,79.80
2022-12-03T00:12:31.651Z,79.47
2022-12-03T00:14:58.248Z,79.88
2022-12-03T00:17:24.736Z,80.07
2022-12-03T00:19:51.079Z,80.56
2022-12-03T00:22:17.371Z,80.41
2022-12-03T00:24:43.689Z,80.03
2022-12-03T00:27:10.017Z,80.05
2022-12-03T00:29:38.147Z,79.97
2022-12-03T00:32:04.620Z,79.61
2022-12-03T00:34:31.064Z,79.62
2022-12-03T00:36:57.392Z,79.46
2022-12-03T00:39:23.712Z,79.71
2022-12-03T00:41:50.057Z,79.48
2022-12-03T00:44:17.578Z,80.22
2022-12-03T00:46:43.995Z,79.70
2022-12-03T00:49:15.376Z,79.83
2022-12-03T00:51:41.705Z,79.30
2022-12-03T00:54:08.245Z,79.41
2022-12-03T00:56:34.610Z,79.31
2022-12-03T00:59:00.940Z,79.64
2022-12-03T01:01:27.271Z,80.06
2022-12-03T01:03:53.635Z,79.44
2022-12-03T01:06:20.272Z,79.18
2022-12-03T01:08:46.611Z,79.85
2022-12-03T01:11:31.482Z,79.15
2022-12-03T01:13:58.224Z,79.58
2022-12-03T01:16:24.589Z,79.34
2022-12-03T01:18:52.685Z,79.43
2022-12-03T01:21:19.586Z,79.44
2022-12-03T01:23:46.203Z,79.12
2022-12-03T01:26:12.523Z,79.67
2022-12-03T01:28:38.867Z,79.90
2022-12-03T01:31:23.654Z,79.84
2022-12-03T01:33:50.049Z,80.00
2022-12-03T01:36:16.339Z,79.41
2022-12-03T01:38:43.740Z,79.81
2022-12-03T01:41:11.831Z,79.85
2022-12-03T01:43:38.686Z,79.51
2022-12-03T01:46:05.217Z,80.10
2022-12-03T01:48:35.543Z,79.92
2022-12-03T01:51:02.021Z,79.48
2022-12-03T01:53:28.359Z,79.10
2022-12-03T01:55:54.752Z,79.24
2022-12-03T01:58:25.600Z,78.98
2022-12-03T02:00:51.934Z,78.75
2022-12-03T02:03:23.201Z,79.07
2022-12-03T02:05:50.177Z,79.41
2022-12-03T02:08:34.520Z,79.75
2022-12-03T02:11:09.320Z,79.65
2022-12-03T02:13:36.299Z,79.22
2022-12-03T02:16:04.257Z,79.62
2022-12-03T02:18:30.627Z,79.52
2022-12-03T02:21:18.501Z,79.81
2022-12-03T02:24:10.187Z,79.98
2022-12-03T02:26:36.547Z,79.45
2022-12-03T02:29:03.919Z,79.68
2022-12-03T02:31:30.280Z,79.10
2022-12-03T02:33:56.714Z,79.02
2022-12-03T02:36:23.252Z,79.47
2022-12-03T02:38:50.812Z,79.74
2022-12-03T02:41:38.764Z,78.73
2022-12-03T02:44:06.826Z,79.34
2022-12-03T02:46:33.979Z,79.10
2022-12-03T02:49:01.746Z,79.49
2022-12-03T02:51:28.138Z,78.97
2022-12-03T02:53:55.871Z,79.02
2022-12-03T02:56:26.781Z,79.39
2022-12-03T02:58:56.886Z,79.77
2022-12-03T03:01:23.311Z,79.49
2022-12-03T03:03:51.486Z,79.32
2022-12-03T03:06:19.215Z,78.88
2022-12-03T03:08:46.487Z,79.58
2022-12-03T03:11:12.996Z,79.04
2022-12-03T03:13:39.639Z,79.11
2022-12-03T03:16:07.590Z,79.78
2022-12-03T03:18:34.959Z,79.78
2022-12-03T03:21:01.792Z,79.39
2022-12-03T03:23:28.305Z,79.24
2022-12-03T03:26:14.202Z,79.69
2022-12-03T03:28:45.476Z,79.85
2022-12-03T03:31:15.986Z,79.54
2022-12-03T03:33:45.190Z,79.47
2022-12-03T03:36:13.063Z,80.20
2022-12-03T03:38:41.108Z,80.01
2022-12-03T03:41:09.472Z,80.07
2022-12-03T03:43:38.123Z,79.83
2022-12-03T03:46:06.396Z,80.59
2022-12-03T03:48:34.748Z,79.95
2022-12-03T03:51:03.581Z,79.64
2022-12-03T03:53:30.824Z,79.96
2022-12-03T03:55:57.181Z,80.09
2022-12-03T03:58:23.687Z,80.00
2022-12-03T04:00:50.107Z,79.49
2022-12-03T04:03:17.084Z,80.51
2022-12-03T04:05:43.420Z,79.66
2022-12-03T04:08:09.787Z,79.03
2022-12-03T04:10:54.608Z,79.74
2022-12-03T04:13:20.931Z,79.53
2022-12-03T04:15:47.455Z,79.46
2022-12-03T04:18:32.497Z,78.96
2022-12-03T04:21:18.795Z,79.58
2022-12-03T04:23:45.157Z,79.30
2022-12-03T04:26:30.076Z,79.16
2022-12-03T04:28:56.465Z,79.09
2022-12-03T04:31:41.149Z,79.27
2022-12-03T04:34:27.752Z,79.82
2022-12-03T04:36:54.861Z,79.22
2022-12-03T04:39:21.206Z,79.33
2022-12-03T04:41:47.519Z,79.77
2022-12-03T04:44:32.423Z,79.12
2022-12-03T04:47:01.942Z,79.56
2022-12-03T04:49:28.536Z,78.97
2022-12-03T04:51:54.855Z,79.43
2022-12-03T04:54:21.188Z,78.55
2022-12-03T04:56:47.492Z,78.95
2022-12-03T04:59:16.577Z,79.24
2022-12-03T05:01:43.865Z,79.75
2022-12-03T05:04:10.770Z,78.63
2022-12-03T05:06:37.149Z,79.52
2022-12-03T05:09:03.623Z,79.32
2022-12-03T05:11:30.135Z,80.09
2022-12-03T05:13:56.617Z,79.99
2022-12-03T05:16:23.013Z,78.90
2022-12-03T05:18:49.382Z,79.77
2022-12-03T05:21:15.858Z,78.89
2022-12-03T05:23:42.566Z,79.18
2022-12-03T05:26:08.917Z,79.62
2022-12-03T05:28:35.332Z,79.19
2022-12-03T05:31:01.720Z,79.06
2022-12-03T05:33:28.192Z,79.38
2022-12-03T05:35:54.566Z,79.41
2022-12-03T05:38:20.872Z,79.00
2022-12-03T05:40:47.188Z,78.96
2022-12-03T05:43:13.620Z,79.16
2022-12-03T05:45:41.409Z,79.39
2022-12-03T05:48:13.815Z,79.25
2022-12-03T05:50:43.839Z,78.80
2022-12-03T05:53:17.163Z,78.71
2022-12-03T05:55:43.687Z,79.32
2022-12-03T05:58:10.162Z,79.30
2022-12-03T06:00:42.430Z,78.88
2022-12-03T06:03:09.991Z,78.56
2022-12-03T06:05:36.459Z,79.23
2022-12-03T06:08:02.859Z,79.18
2022-12-03T06:10:29.670Z,79.43
2022-12-03T06:12:56.309Z,79.30
2022-12-03T06:15:23.064Z,79.96
2022-12-03T06:17:49.536Z,80.34
2022-12-03T06:20:18.298Z,79.88
2022-12-03T06:22:44.908Z,79.67
2022-12-03T06:25:12.156Z,79.24
2022-12-03T06:27:38.551Z,79.16
2022-12-03T06:30:06.757Z,79.90
2022-12-03T06:32:33.166Z,79.94
2022-12-03T06:34:59.494Z,79.85
2022-12-03T06:37:25.832Z,79.47
2022-12-03T06:39:52.140Z,79.85
2022-12-03T06:42:18.571Z,79.18
2022-12-03T06:44:44.871Z,79.22
2022-12-03T06:47:11.174Z,80.14
2022-12-03T06:49:37.485Z,80.48
2022-12-03T06:52:05.309Z,80.51
2022-12-03T06:54:31.651Z,79.31
2022-12-03T06:56:57.984Z,79.11
2022-12-03T06:59:24.321Z,80.77
2022-12-03T07:01:50.641Z,79.62
2022-12-03T07:04:17.010Z,80.02
2022-12-03T07:06:43.675Z,80.47
2022-12-03T07:09:10.018Z,79.58
2022-12-03T07:11:40.260Z,80.19
2022-12-03T07:14:08.236Z,79.56
2022-12-03T07:16:35.824Z,79.59
2022-12-03T07:19:03.387Z,78.94
2022-12-03T07:21:29.711Z,80.16
2022-12-03T07:23:56.104Z,80.07
2022-12-03T07:26:22.443Z,78.82
2022-12-03T07:28:48.763Z,80.19
2022-12-03T07:31:16.201Z,79.66
2022-12-03T07:33:42.715Z,78.78
2022-12-03T07:36:09.651Z,79.61
2022-12-03T07:38:36.120Z,80.22
2022-12-03T07:41:02.462Z,79.98
2022-12-03T07:43:28.785Z,78.70
2022-12-03T07:45:55.094Z,78.66
2022-12-03T07:48:21.403Z,78.42
2022-12-03T07:50:47.786Z,79.26
2022-12-03T07:53:15.056Z,79.27
2022-12-03T07:55:41.380Z,78.69
2022-12-03T07:58:08.920Z,80.01
2022-12-03T08:00:35.291Z,78.95
2022-12-03T08:03:01.670Z,79.10
2022-12-03T08:05:29.474Z,78.89
2022-12-03T08:07:55.980Z,79.81
2022-12-03T08:10:25.125Z,80.01
2022-12-03T08:12:51.573Z,78.48
2022-12-03T08:15:20.366Z,79.45
2022-12-03T08:17:53.515Z,78.55
2022-12-03T08:20:22.200Z,79.05
2022-12-03T08:22:51.227Z,78.41
2022-12-03T08:25:28.459Z,78.92
2022-12-03T08:28:12.632Z,78.33
2022-12-03T08:30:40.015Z,78.60
2022-12-03T08:33:28.259Z,78.14
2022-12-03T08:35:54.898Z,77.88
2022-12-03T08:38:23.844Z,77.87
2022-12-03T08:40:52.457Z,78.09
2022-12-03T08:43:25.946Z,77.39
2022-12-03T08:45:54.516Z,77.92
2022-12-03T08:48:36.739Z,78.28
2022-12-03T08:51:21.466Z,77.70
2022-12-03T08:53:51.938Z,77.43
2022-12-03T08:56:25.104Z,77.52
2022-12-03T08:58:54.137Z,77.34
2022-12-03T09:01:30.797Z,77.01
2022-12-03T09:04:13.459Z,77.02
2022-12-03T09:06:39.824Z,77.27
2022-12-03T09:09:06.966Z,77.47
2022-12-03T09:11:33.403Z,76.78
2022-12-03T09:13:59.733Z,77.16
2022-12-03T09:16:26.102Z,76.92
2022-12-03T09:18:52.560Z,77.58
2022-12-03T09:21:18.884Z,77.38
2022-12-03T09:23:45.192Z,77.66
2022-12-03T09:26:11.494Z,77.34
2022-12-03T09:28:37.805Z,77.77
2022-12-03T09:31:04.138Z,76.67
2022-12-03T09:33:32.271Z,76.60
2022-12-03T09:35:59.438Z,76.94
2022-12-03T09:38:25.989Z,78.23
2022-12-03T09:40:53.854Z,77.29
2022-12-03T09:43:20.630Z,77.31
2022-12-03T09:45:48.935Z,77.43
2022-12-03T09:48:18.147Z,76.44
2022-12-03T09:50:44.928Z,76.40
2022-12-03T09:53:17.447Z,77.69
2022-12-03T09:55:45.578Z,76.49
2022-12-03T09:58:13.898Z,76.89
2022-12-03T10:00:41.873Z,77.03
2022-12-03T10:03:12.347Z,76.84
2022-12-03T10:05:43.734Z,75.86
2022-12-03T10:08:18.376Z,77.34
2022-12-03T10:10:44.868Z,77.37
2022-12-03T10:13:25.673Z,76.18
2022-12-03T10:15:55.373Z,76.95
2022-12-03T10:18:24.834Z,76.97
2022-12-03T10:20:51.984Z,76.10
2022-12-03T10:23:29.646Z,77.43
2022-12-03T10:26:02.911Z,77.02
2022-12-03T10:28:38.938Z,77.35
2022-12-03T10:31:07.715Z,76.26
2022-12-03T10:33:44.576Z,76.15
2022-12-03T10:36:20.615Z,76.72
2022-12-03T10:39:04.951Z,76.38
2022-12-03T10:41:31.347Z,77.03
2022-12-03T10:44:14.771Z,76.74
2022-12-03T10:46:41.303Z,76.47
2022-12-03T10:49:17.005Z,76.58
2022-12-03T10:51:44.547Z,76.82
2022-12-03T10:54:21.100Z,76.31
2022-12-03T10:56:49.231Z,76.21
2022-12-03T10:59:22.632Z,75.57
2022-12-03T11:01:50.495Z,76.21
2022-12-03T11:04:32.228Z,75.72
2022-12-03T11:06:58.824Z,76.47
2022-12-03T11:09:29.395Z,75.70
2022-12-03T11:11:55.952Z,75.73
2022-12-03T11:14:51.391Z,75.37
2022-12-03T11:18:06.542Z,75.75
2022-12-03T11:20:35.993Z,75.00
2022-12-03T11:23:02.343Z,76.94
2022-12-03T11:25:28.659Z,76.14
2022-12-03T11:28:10.187Z,75.38
2022-12-03T11:30:48.918Z,75.46
2022-12-03T11:33:30.065Z,75.79
2022-12-03T11:36:05.447Z,76.01
2022-12-03T11:38:38.092Z,76.00
2022-12-03T11:41:10.424Z,76.11
2022-12-03T11:43:52.059Z,75.79
2022-12-03T11:46:25.324Z,75.55
2022-12-03T11:48:55.425Z,75.29
2022-12-03T11:51:24.370Z,76.02
2022-12-03T11:53:52.963Z,75.87
2022-12-03T11:56:23.850Z,76.20
2022-12-03T11:58:59.217Z,76.24
2022-12-03T12:01:40.500Z,76.12
2022-12-03T12:04:25.741Z,75.18
2022-12-03T12:06:53.604Z,76.15
2022-12-03T12:09:52.665Z,75.53
2022-12-03T12:12:40.768Z,75.49
2022-12-03T12:15:32.809Z,75.38
2022-12-03T12:18:37.780Z,75.41
2022-12-03T12:21:42.535Z,75.17
2022-12-03T12:24:32.151Z,75.49
2022-12-03T12:27:01.231Z,75.84
2022-12-03T12:29:28.112Z,75.51
2022-12-03T12:32:00.340Z,76.09
2022-12-03T12:34:26.776Z,76.31
2022-12-03T12:36:55.915Z,76.61
2022-12-03T12:39:22.361Z,76.49
2022-12-03T12:41:50.396Z,76.46
2022-12-03T12:44:18.249Z,75.24
2022-12-03T12:46:48.464Z,75.59
2022-12-03T12:49:24.976Z,75.14
2022-12-03T12:51:51.339Z,76.05
2022-12-03T12:54:18.656Z,75.01
2022-12-03T12:56:49.679Z,75.27
2022-12-03T12:59:20.028Z,75.91
2022-12-03T13:01:49.017Z,75.60
2022-12-03T13:04:22.504Z,75.74
2022-12-03T13:06:51.610Z,75.39
2022-12-03T13:09:25.851Z,75.64
2022-12-03T13:12:00.647Z,75.17
2022-12-03T13:14:36.777Z,75.51
2022-12-03T13:17:24.431Z,75.59
2022-12-03T13:20:00.584Z,75.04
2022-12-03T13:22:31.659Z,74.44
2022-12-03T13:25:06.764Z,74.95
2022-12-03T13:27:33.115Z,75.62
2022-12-03T13:30:13.414Z,75.04
2022-12-03T13:32:41.452Z,74.47
2022-12-03T13:35:35.791Z,75.35
2022-12-03T13:38:02.986Z,75.58
2022-12-03T13:40:32.800Z,75.08
2022-12-03T13:42:59.335Z,75.15
2022-12-03T13:45:39.090Z,74.84
2022-12-03T13:48:24.733Z,74.60
2022-12-03T13:50:53.159Z,74.36
2022-12-03T13:53:29.110Z,74.62
2022-12-03T13:56:03.179Z,74.49
2022-12-03T13:58:29.558Z,75.35
2022-12-03T14:00:56.037Z,75.73
2022-12-03T14:03:23.269Z,74.98
2022-12-03T14:05:49.584Z,74.55
2022-12-03T14:08:15.951Z,75.09
2022-12-03T14:10:42.319Z,74.42
2022-12-03T14:13:08.707Z,74.02
2022-12-03T14:15:34.998Z,74.34
2022-12-03T14:18:02.206Z,74.45
2022-12-03T14:20:28.522Z,75.02
2022-12-03T14:22:59.359Z,75.30
2022-12-03T14:25:26.350Z,75.26
2022-12-03T14:27:52.647Z,75.07
2022-12-03T14:30:19.051Z,75.57
2022-12-03T14:32:45.455Z,74.86
2022-12-03T14:35:11.752Z,75.65
2022-12-03T14:37:38.107Z,75.75
2022-12-03T14:40:07.188Z,74.68
2022-12-03T14:42:33.558Z,76.06
2022-12-03T14:45:00.004Z,75.70
2022-12-03T14:47:26.303Z,75.44
2022-12-03T14:49:53.268Z,75.83
2022-12-03T14:52:20.376Z,76.10
2022-12-03T14:54:46.706Z,75.16
2022-12-03T14:57:14.772Z,75.99
2022-12-03T14:59:42.402Z,76.03
2022-12-03T15:02:10.702Z,75.47
2022-12-03T15:04:37.998Z,76.25
2022-12-03T15:07:04.868Z,75.33
2022-12-03T15:09:31.266Z,76.47
2022-12-03T15:11:57.601Z,76.34
2022-12-03T15:14:24.116Z,75.60
2022-12-03T15:16:50.584Z,75.76
2022-12-03T15:19:16.976Z,76.79
2022-12-03T15:21:43.337Z,76.63
2022-12-03T15:24:10.410Z,76.63
2022-12-03T15:26:37.023Z,76.53
2022-12-03T15:29:03.366Z,76.20
2022-12-03T15:31:29.757Z,77.12
2022-12-03T15:33:56.078Z,77.24
2022-12-03T15:36:22.440Z,77.22
2022-12-03T15:38:48.833Z,76.80
2022-12-03T15:41:21.522Z,76.60
2022-12-03T15:43:48.553Z,76.91
2022-12-03T15:46:14.946Z,77.70
2022-12-03T15:48:41.424Z,76.61
2022-12-03T15:51:07.955Z,76.95
2022-12-03T15:53:34.283Z,76.29
2022-12-03T15:56:00.595Z,76.98
2022-12-03T15:58:26.902Z,76.05
2022-12-03T16:00:53.199Z,77.00
2022-12-03T16:03:19.652Z,76.75
2022-12-03T16:05:46.068Z,76.57
2022-12-03T16:08:12.470Z,77.62
2022-12-03T16:10:39.439Z,76.91
2022-12-03T16:13:05.806Z,76.39
2022-12-03T16:15:32.181Z,76.99
2022-12-03T16:17:58.548Z,77.90
2022-12-03T16:20:24.851Z,77.01
2022-12-03T16:22:52.064Z,77.74
2022-12-03T16:25:18.574Z,76.92
2022-12-03T16:27:44.873Z,77.52
2022-12-03T16:30:11.661Z,77.53
2022-12-03T16:32:38.043Z,77.22
2022-12-03T16:35:04.630Z,77.60
2022-12-03T16:37:31.146Z,77.89
2022-12-03T16:39:57.542Z,77.04
2022-12-03T16:42:24.357Z,77.53
2022-12-03T16:45:02.822Z,77.11
2022-12-03T16:47:33.578Z,76.33
2022-12-03T16:50:02.295Z,76.77
2022-12-03T16:52:28.756Z,76.79
2022-12-03T16:54:55.074Z,76.60
2022-12-03T16:57:21.619Z,77.36
2022-12-03T16:59:47.936Z,77.68
2022-12-03T17:02:14.428Z,77.17
2022-12-03T17:04:40.952Z,77.03
2022-12-03T17:07:07.264Z,76.78
2022-12-03T17:09:33.569Z,77.18
2022-12-03T17:11:59.938Z,77.39
2022-12-03T17:14:31.423Z,78.56
2022-12-03T17:16:59.496Z,78.41
2022-12-03T17:19:25.815Z,76.68
2022-12-03T17:21:53.866Z,77.00
2022-12-03T17:24:21.225Z,77.19
2022-12-03T17:26:47.532Z,77.30
2022-12-03T17:29:14.154Z,77.06
2022-12-03T17:31:42.620Z,77.51
2022-12-03T17:34:09.718Z,77.08
2022-12-03T17:36:36.060Z,76.68
2022-12-03T17:39:02.618Z,76.45
2022-12-03T17:41:28.975Z,78.27
2022-12-03T17:43:55.337Z,77.07
2022-12-03T17:46:21.754Z,78.04
2022-12-03T17:48:48.104Z,77.51
2022-12-03T17:51:14.557Z,77.26
2022-12-03T17:53:41.659Z,77.41
2022-12-03T17:56:08.203Z,77.26
2022-12-03T17:58:34.811Z,76.91
2022-12-03T18:01:03.063Z,77.67
2022-12-03T18:03:32.742Z,77.27
2022-12-03T18:05:59.151Z,77.07
2022-12-03T18:08:25.463Z,77.42
2022-12-03T18:10:51.838Z,77.96
2022-12-03T18:13:18.196Z,78.25
2022-12-03T18:15:44.698Z,76.97
2022-12-03T18:18:11.450Z,77.30
2022-12-03T18:20:38.049Z,78.47
2022-12-03T18:23:05.037Z,77.75
2022-12-03T18:25:31.617Z,77.11
2022-12-03T18:27:58.163Z,77.10
2022-12-03T18:30:24.560Z,77.40
2022-12-03T18:32:50.907Z,78.29
2022-12-03T18:35:17.926Z,77.54
2022-12-03T18:37:44.309Z,78.62
2022-12-03T18:40:17.845Z,78.52
2022-12-03T18:42:44.292Z,78.37
2022-12-03T18:45:11.895Z,78.01
2022-12-03T18:47:38.833Z,78.34
2022-12-03T18:50:06.319Z,78.11
2022-12-03T18:52:32.815Z,77.80
2022-12-03T18:54:59.116Z,77.77
2022-12-03T18:57:25.440Z,78.23
2022-12-03T18:59:52.003Z,77.33
2022-12-03T19:03:01.915Z,77.22
2022-12-03T19:05:10.026Z,78.53
2022-12-03T19:07:36.871Z,77.57
2022-12-03T19:10:04.469Z,77.91
2022-12-03T19:12:31.113Z,76.77
2022-12-03T19:14:57.463Z,77.50
2022-12-03T19:17:23.920Z,77.02
2022-12-03T19:19:50.225Z,77.39
2022-12-03T19:22:16.571Z,77.65
2022-12-03T19:24:43.589Z,77.35
2022-12-03T19:27:09.995Z,78.34
2022-12-03T19:29:36.310Z,77.85
2022-12-03T19:32:02.731Z,77.59
2022-12-03T19:34:29.797Z,78.54
2022-12-03T19:36:56.239Z,77.27
2022-12-03T19:39:22.572Z,77.49
2022-12-03T19:41:48.937Z,78.31
2022-12-03T19:44:17.365Z,78.06
2022-12-03T19:46:44.142Z,77.23
2022-12-03T19:49:11.320Z,78.05
2022-12-03T19:51:38.039Z,77.77
2022-12-03T19:54:06.332Z,78.14
2022-12-03T19:56:32.756Z,77.88
2022-12-03T19:58:59.106Z,76.92
2022-12-03T20:01:28.333Z,77.91
2022-12-03T20:03:57.300Z,77.62
2022-12-03T20:06:27.367Z,78.25
2022-12-03T20:09:02.119Z,78.04
2022-12-03T20:11:31.179Z,78.40
2022-12-03T20:14:03.265Z,77.13
2022-12-03T20:16:30.233Z,77.50
2022-12-03T20:18:59.192Z,77.45
2022-12-03T20:21:25.986Z,77.57
2022-12-03T20:23:52.972Z,78.82
2022-12-03T20:26:20.960Z,78.30
2022-12-03T20:28:50.180Z,77.82
2022-12-03T20:31:19.079Z,78.20
2022-12-03T20:33:48.295Z,77.97
2022-12-03T20:36:16.376Z,77.98
2022-12-03T20:38:44.875Z,78.73
2022-12-03T20:41:14.528Z,77.80
2022-12-03T20:43:41.118Z,77.83
2022-12-03T20:46:19.501Z,78.39
2022-12-03T20:48:46.249Z,78.22
2022-12-03T20:51:18.290Z,78.98
2022-12-03T20:53:45.316Z,78.33
2022-12-03T20:56:20.386Z,78.36
2022-12-03T20:58:48.849Z,78.94
2022-12-03T21:01:18.537Z,78.93
2022-12-03T21:03:49.484Z,78.88
2022-12-03T21:06:16.592Z,77.52
2022-12-03T21:08:43.705Z,78.68
2022-12-03T21:11:15.782Z,78.30
2022-12-03T21:13:43.790Z,78.21
2022-12-03T21:16:14.888Z,79.04
2022-12-03T21:18:42.383Z,78.85
2022-12-03T21:21:11.622Z,78.97
2022-12-03T21:23:38.034Z,77.90
2022-12-03T21:26:12.730Z,78.87
2022-12-03T21:28:41.065Z,79.12
2022-12-03T21:31:09.804Z,79.04
2022-12-03T21:33:37.134Z,79.95
2022-12-03T21:36:04.841Z,79.74
2022-12-03T21:38:32.145Z,79.42
2022-12-03T21:40:59.224Z,78.36
2022-12-03T21:43:25.773Z,79.14
2022-12-03T21:45:52.496Z,79.02
2022-12-03T21:48:20.137Z,78.46
2022-12-03T21:50:59.261Z,78.08
2022-12-03T21:53:25.938Z,78.42
2022-12-03T21:55:52.281Z,78.78
2022-12-03T21:58:18.617Z,78.75
2022-12-03T22:00:44.938Z,78.26
2022-12-03T22:03:11.301Z,79.07
2022-12-03T22:05:38.442Z,79.47
2022-12-03T22:08:05.142Z,78.07
2022-12-03T22:10:31.512Z,79.30
2022-12-03T22:12:57.818Z,79.90
2022-12-03T22:15:24.152Z,78.51
2022-12-03T22:17:50.512Z,77.95
2022-12-03T22:20:16.845Z,79.55
2022-12-03T22:22:43.234Z,79.50
2022-12-03T22:25:09.827Z,78.75
2022-12-03T22:27:36.156Z,78.68
2022-12-03T22:30:03.714Z,78.66
2022-12-03T22:32:30.068Z,78.78
2022-12-03T22:34:56.427Z,79.67
2022-12-03T22:37:22.816Z,79.42
2022-12-03T22:39:49.131Z,78.66
2022-12-03T22:42:15.454Z,77.98
2022-12-03T22:44:41.967Z,78.73
2022-12-03T22:47:08.381Z,77.56
2022-12-03T22:49:34.836Z,78.23
2022-12-03T22:52:01.169Z,78.86
2022-12-03T22:54:27.511Z,79.54
2022-12-03T22:56:53.819Z,78.40
2022-12-03T22:59:20.128Z,78.41
2022-12-03T23:01:47.265Z,78.09
2022-12-03T23:04:13.620Z,79.09
2022-12-03T23:06:40.120Z,79.31
2022-12-03T23:09:07.980Z,79.34
2022-12-03T23:11:34.713Z,79.56
2022-12-03T23:14:01.410Z,79.05
2022-12-03T23:16:30.153Z,79.37
2022-12-03T23:19:01.647Z,79.67
2022-12-03T23:21:30.905Z,78.44
2022-12-03T23:24:01.915Z,79.34
2022-12-03T23:26:28.854Z,78.89
2022-12-03T23:28:56.319Z,78.65
2022-12-03T23:31:26.157Z,79.33
2022-12-03T23:33:53.461Z,78.98
2022-12-03T23:36:20.705Z,78.99
2022-12-03T23:38:47.116Z,78.66
2022-12-03T23:41:16.176Z,78.77
2022-12-03T23:43:42.812Z,78.67
2022-12-03T23:46:15.471Z,79.42
2022-12-03T23:48:42.231Z,78.87
2022-12-03T23:51:14.242Z,79.51
2022-12-03T23:53:41.030Z,78.98
2022-12-03T23:56:12.886Z,77.97
2022-12-03T23:58:39.324Z,78.42
